sensor_id;sensor_type;location;lat;lon;timestamp;temperature;humidity
53904;DHT22;39812;52.430;16.936;2023-03-16T00:01:17;0.20;99.90
53904;DHT22;39812;52.430;16.936;2023-03-16T00:03:43;0.20;99.90
53904;DHT22;39812;52.430;16.936;2023-03-16T00:06:09;0.10;99.90
53904;DHT22;39812;52.430;16.936;2023-03-16T00:08:35;0.20;99.90
53904;DHT22;39812;52.430;16.936;2023-03-16T00:11:01;0.20;99.90
53904;DHT22;39812;52.430;16.936;2023-03-16T00:13:27;0.10;99.90
53904;DHT22;39812;52.430;16.936;2023-03-16T00:15:59;0.00;99.90
53904;DHT22;39812;52.430;16.936;2023-03-16T00:18:26;0.00;99.90
53904;DHT22;39812;52.430;16.936;2023-03-16T00:21:00;0.10;99.90
53904;DHT22;39812;52.430;16.936;2023-03-16T00:23:30;0.00;99.90
53904;DHT22;39812;52.430;16.936;2023-03-16T00:26:04;0.00;99.90
53904;DHT22;39812;52.430;16.936;2023-03-16T00:28:31;-0.10;99.90
53904;DHT22;39812;52.430;16.936;2023-03-16T00:31:04;-0.10;99.90
53904;DHT22;39812;52.430;16.936;2023-03-16T00:33:30;-0.30;99.90
53904;DHT22;39812;52.430;16.936;2023-03-16T00:36:00;-0.20;99.90
53904;DHT22;39812;52.430;16.936;2023-03-16T00:38:31;-0.20;99.90
53904;DHT22;39812;52.430;16.936;2023-03-16T00:40:59;-0.20;99.90
53904;DHT22;39812;52.430;16.936;2023-03-16T00:43:31;-0.30;99.90
53904;DHT22;39812;52.430;16.936;2023-03-16T00:46:08;-0.30;99.90
53904;DHT22;39812;52.430;16.936;2023-03-16T00:48:38;-0.20;99.90
53904;DHT22;39812;52.430;16.936;2023-03-16T00:51:05;-0.30;99.90
53904;DHT22;39812;52.430;16.936;2023-03-16T00:53:32;-0.30;99.90
53904;DHT22;39812;52.430;16.936;2023-03-16T00:55:58;-0.30;99.90
53904;DHT22;39812;52.430;16.936;2023-03-16T00:58:24;-0.40;99.90
53904;DHT22;39812;52.430;16.936;2023-03-16T01:00:49;-0.40;99.90
53904;DHT22;39812;52.430;16.936;2023-03-16T01:03:17;-0.40;99.90
53904;DHT22;39812;52.430;16.936;2023-03-16T01:05:43;-0.40;99.90
53904;DHT22;39812;52.430;16.936;2023-03-16T01:08:10;-0.50;99.90
53904;DHT22;39812;52.430;16.936;2023-03-16T01:10:36;-0.40;99.90
53904;DHT22;39812;52.430;16.936;2023-03-16T01:13:02;-0.40;99.90
53904;DHT22;39812;52.430;16.936;2023-03-16T01:15:29;-0.50;99.90
53904;DHT22;39812;52.430;16.936;2023-03-16T01:17:55;-0.60;99.90
53904;DHT22;39812;52.430;16.936;2023-03-16T01:20:21;-0.50;99.90
53904;DHT22;39812;52.430;16.936;2023-03-16T01:22:47;-0.50;99.90
53904;DHT22;39812;52.430;16.936;2023-03-16T01:25:13;-0.50;99.90
53904;DHT22;39812;52.430;16.936;2023-03-16T01:27:39;-0.50;99.90
53904;DHT22;39812;52.430;16.936;2023-03-16T01:30:05;-0.60;99.90
53904;DHT22;39812;52.430;16.936;2023-03-16T01:32:31;-0.60;99.90
53904;DHT22;39812;52.430;16.936;2023-03-16T01:34:58;-0.60;99.90
53904;DHT22;39812;52.430;16.936;2023-03-16T01:37:24;-0.60;99.90
53904;DHT22;39812;52.430;16.936;2023-03-16T01:39:50;-0.60;99.90
53904;DHT22;39812;52.430;16.936;2023-03-16T01:42:16;-0.60;99.90
53904;DHT22;39812;52.430;16.936;2023-03-16T01:44:56;-0.60;99.90
53904;DHT22;39812;52.430;16.936;2023-03-16T01:47:22;-0.60;99.90
53904;DHT22;39812;52.430;16.936;2023-03-16T01:49:49;-0.60;99.90
53904;DHT22;39812;52.430;16.936;2023-03-16T01:52:23;-0.70;99.90
53904;DHT22;39812;52.430;16.936;2023-03-16T01:54:54;-0.70;99.90
53904;DHT22;39812;52.430;16.936;2023-03-16T01:57:31;-0.70;99.90
53904;DHT22;39812;52.430;16.936;2023-03-16T02:00:11;-0.60;99.90
53904;DHT22;39812;52.430;16.936;2023-03-16T02:02:47;-0.40;99.90
53904;DHT22;39812;52.430;16.936;2023-03-16T02:05:18;-0.40;99.90
53904;DHT22;39812;52.430;16.936;2023-03-16T02:07:50;-0.40;99.90
53904;DHT22;39812;52.430;16.936;2023-03-16T02:10:23;-0.30;99.90
53904;DHT22;39812;52.430;16.936;2023-03-16T02:12:51;-0.10;99.90
53904;DHT22;39812;52.430;16.936;2023-03-16T02:15:18;0.00;99.90
53904;DHT22;39812;52.430;16.936;2023-03-16T02:17:44;0.00;99.90
53904;DHT22;39812;52.430;16.936;2023-03-16T02:23:16;0.10;99.90
53904;DHT22;39812;52.430;16.936;2023-03-16T02:25:58;0.10;99.90
53904;DHT22;39812;52.430;16.936;2023-03-16T02:31:16;0.20;99.90
53904;DHT22;39812;52.430;16.936;2023-03-16T02:33:43;0.20;99.90
53904;DHT22;39812;52.430;16.936;2023-03-16T02:36:09;0.20;99.90
53904;DHT22;39812;52.430;16.936;2023-03-16T02:38:36;0.20;99.90
53904;DHT22;39812;52.430;16.936;2023-03-16T02:43:40;0.00;99.90
53904;DHT22;39812;52.430;16.936;2023-03-16T02:46:08;-0.10;99.90
53904;DHT22;39812;52.430;16.936;2023-03-16T02:48:39;-0.20;99.90
53904;DHT22;39812;52.430;16.936;2023-03-16T02:51:07;-0.30;99.90
53904;DHT22;39812;52.430;16.936;2023-03-16T02:53:33;-0.50;99.90
53904;DHT22;39812;52.430;16.936;2023-03-16T02:55:59;-0.60;99.90
53904;DHT22;39812;52.430;16.936;2023-03-16T02:58:28;-0.60;99.90
53904;DHT22;39812;52.430;16.936;2023-03-16T03:00:54;-0.60;99.90
53904;DHT22;39812;52.430;16.936;2023-03-16T03:03:19;-0.60;99.90
53904;DHT22;39812;52.430;16.936;2023-03-16T03:05:46;-0.50;99.90
53904;DHT22;39812;52.430;16.936;2023-03-16T03:08:12;-0.50;99.90
53904;DHT22;39812;52.430;16.936;2023-03-16T03:10:38;-0.50;99.90
53904;DHT22;39812;52.430;16.936;2023-03-16T03:13:06;-0.50;99.90
53904;DHT22;39812;52.430;16.936;2023-03-16T03:15:34;-0.60;99.90
53904;DHT22;39812;52.430;16.936;2023-03-16T03:18:01;-0.50;99.90
53904;DHT22;39812;52.430;16.936;2023-03-16T03:20:27;-0.50;99.90
53904;DHT22;39812;52.430;16.936;2023-03-16T03:22:52;-0.60;99.90
53904;DHT22;39812;52.430;16.936;2023-03-16T03:25:19;-0.50;99.90
53904;DHT22;39812;52.430;16.936;2023-03-16T03:27:46;-0.60;99.90
53904;DHT22;39812;52.430;16.936;2023-03-16T03:30:16;-0.60;99.90
53904;DHT22;39812;52.430;16.936;2023-03-16T03:32:42;-0.60;99.90
53904;DHT22;39812;52.430;16.936;2023-03-16T03:35:09;-0.70;99.90
53904;DHT22;39812;52.430;16.936;2023-03-16T03:37:38;-0.70;99.90
53904;DHT22;39812;52.430;16.936;2023-03-16T03:40:04;-0.60;99.90
53904;DHT22;39812;52.430;16.936;2023-03-16T03:42:30;-0.60;99.90
53904;DHT22;39812;52.430;16.936;2023-03-16T03:44:56;-0.60;99.90
53904;DHT22;39812;52.430;16.936;2023-03-16T03:47:21;-0.60;99.90
53904;DHT22;39812;52.430;16.936;2023-03-16T03:49:47;-0.50;99.90
53904;DHT22;39812;52.430;16.936;2023-03-16T03:52:13;-0.50;99.90
53904;DHT22;39812;52.430;16.936;2023-03-16T03:54:39;-0.50;99.90
53904;DHT22;39812;52.430;16.936;2023-03-16T03:57:04;-0.60;99.90
53904;DHT22;39812;52.430;16.936;2023-03-16T03:59:30;-0.60;99.90
53904;DHT22;39812;52.430;16.936;2023-03-16T04:01:56;-0.60;99.90
53904;DHT22;39812;52.430;16.936;2023-03-16T04:04:22;-0.70;99.90
53904;DHT22;39812;52.430;16.936;2023-03-16T04:06:48;-0.80;99.90
53904;DHT22;39812;52.430;16.936;2023-03-16T04:09:16;-0.90;99.90
53904;DHT22;39812;52.430;16.936;2023-03-16T04:11:41;-0.90;99.90
53904;DHT22;39812;52.430;16.936;2023-03-16T04:14:08;-1.00;99.90
53904;DHT22;39812;52.430;16.936;2023-03-16T04:16:34;-1.00;99.90
53904;DHT22;39812;52.430;16.936;2023-03-16T04:18:59;-0.90;99.90
53904;DHT22;39812;52.430;16.936;2023-03-16T04:21:26;-1.00;99.90
53904;DHT22;39812;52.430;16.936;2023-03-16T04:23:51;-1.00;99.90
53904;DHT22;39812;52.430;16.936;2023-03-16T04:26:22;-1.10;99.90
53904;DHT22;39812;52.430;16.936;2023-03-16T04:28:50;-1.00;99.90
53904;DHT22;39812;52.430;16.936;2023-03-16T04:31:17;-1.10;99.90
53904;DHT22;39812;52.430;16.936;2023-03-16T04:33:43;-1.00;99.90
53904;DHT22;39812;52.430;16.936;2023-03-16T04:36:08;-1.00;99.90
53904;DHT22;39812;52.430;16.936;2023-03-16T04:38:35;-1.00;99.90
53904;DHT22;39812;52.430;16.936;2023-03-16T04:41:04;-0.90;99.90
53904;DHT22;39812;52.430;16.936;2023-03-16T04:43:31;-0.90;99.90
53904;DHT22;39812;52.430;16.936;2023-03-16T04:46:02;-0.90;99.90
53904;DHT22;39812;52.430;16.936;2023-03-16T04:48:29;-0.90;99.90
53904;DHT22;39812;52.430;16.936;2023-03-16T04:50:56;-1.00;99.90
53904;DHT22;39812;52.430;16.936;2023-03-16T04:53:22;-1.00;99.90
53904;DHT22;39812;52.430;16.936;2023-03-16T04:55:48;-1.00;99.90
53904;DHT22;39812;52.430;16.936;2023-03-16T04:58:14;-1.00;99.90
53904;DHT22;39812;52.430;16.936;2023-03-16T05:00:40;-1.00;99.90
53904;DHT22;39812;52.430;16.936;2023-03-16T05:03:07;-1.10;99.90
53904;DHT22;39812;52.430;16.936;2023-03-16T05:05:35;-1.10;99.90
53904;DHT22;39812;52.430;16.936;2023-03-16T05:08:01;-1.10;99.90
53904;DHT22;39812;52.430;16.936;2023-03-16T05:10:29;-1.10;99.90
53904;DHT22;39812;52.430;16.936;2023-03-16T05:12:55;-1.10;99.90
53904;DHT22;39812;52.430;16.936;2023-03-16T05:15:20;-1.10;99.90
53904;DHT22;39812;52.430;16.936;2023-03-16T05:17:49;-1.00;99.90
53904;DHT22;39812;52.430;16.936;2023-03-16T05:20:16;-1.00;99.90
53904;DHT22;39812;52.430;16.936;2023-03-16T05:22:44;-1.00;99.90
53904;DHT22;39812;52.430;16.936;2023-03-16T05:25:10;-1.00;99.90
53904;DHT22;39812;52.430;16.936;2023-03-16T05:27:50;-1.00;99.90
53904;DHT22;39812;52.430;16.936;2023-03-16T05:30:17;-1.00;99.90
53904;DHT22;39812;52.430;16.936;2023-03-16T05:32:43;-1.00;99.90
53904;DHT22;39812;52.430;16.936;2023-03-16T05:35:10;-1.00;99.90
53904;DHT22;39812;52.430;16.936;2023-03-16T05:37:40;-1.00;99.90
53904;DHT22;39812;52.430;16.936;2023-03-16T05:40:07;-0.90;99.90
53904;DHT22;39812;52.430;16.936;2023-03-16T05:42:52;-0.90;99.90
53904;DHT22;39812;52.430;16.936;2023-03-16T05:45:18;-0.90;99.90
53904;DHT22;39812;52.430;16.936;2023-03-16T05:47:44;-0.90;99.90
53904;DHT22;39812;52.430;16.936;2023-03-16T05:50:12;-0.80;99.90
53904;DHT22;39812;52.430;16.936;2023-03-16T05:52:38;-0.80;99.90
53904;DHT22;39812;52.430;16.936;2023-03-16T05:55:06;-0.80;99.90
53904;DHT22;39812;52.430;16.936;2023-03-16T05:57:32;-0.80;99.90
53904;DHT22;39812;52.430;16.936;2023-03-16T05:59:59;-0.70;99.90
53904;DHT22;39812;52.430;16.936;2023-03-16T06:02:24;-0.60;99.90
53904;DHT22;39812;52.430;16.936;2023-03-16T06:04:51;-0.50;99.90
53904;DHT22;39812;52.430;16.936;2023-03-16T06:07:16;-0.50;99.90
53904;DHT22;39812;52.430;16.936;2023-03-16T06:09:42;-0.40;99.90
53904;DHT22;39812;52.430;16.936;2023-03-16T06:12:08;-0.30;99.90
53904;DHT22;39812;52.430;16.936;2023-03-16T06:14:34;-0.30;99.90
53904;DHT22;39812;52.430;16.936;2023-03-16T06:17:00;-0.20;99.90
53904;DHT22;39812;52.430;16.936;2023-03-16T06:19:25;-0.10;99.90
53904;DHT22;39812;52.430;16.936;2023-03-16T06:21:51;0.00;99.90
53904;DHT22;39812;52.430;16.936;2023-03-16T06:24:17;0.10;99.90
53904;DHT22;39812;52.430;16.936;2023-03-16T06:26:42;0.10;99.90
53904;DHT22;39812;52.430;16.936;2023-03-16T06:29:08;0.20;99.90
53904;DHT22;39812;52.430;16.936;2023-03-16T06:31:33;0.20;99.90
53904;DHT22;39812;52.430;16.936;2023-03-16T06:33:59;0.30;99.90
53904;DHT22;39812;52.430;16.936;2023-03-16T06:36:25;0.40;99.90
53904;DHT22;39812;52.430;16.936;2023-03-16T06:38:51;0.50;99.90
53904;DHT22;39812;52.430;16.936;2023-03-16T06:41:17;0.50;99.90
53904;DHT22;39812;52.430;16.936;2023-03-16T06:43:42;0.60;99.90
53904;DHT22;39812;52.430;16.936;2023-03-16T06:46:08;0.60;99.90
53904;DHT22;39812;52.430;16.936;2023-03-16T06:48:34;0.70;99.90
53904;DHT22;39812;52.430;16.936;2023-03-16T06:51:00;0.70;99.90
53904;DHT22;39812;52.430;16.936;2023-03-16T06:53:26;0.80;99.90
53904;DHT22;39812;52.430;16.936;2023-03-16T06:55:51;0.90;99.90
53904;DHT22;39812;52.430;16.936;2023-03-16T06:58:17;0.90;99.90
53904;DHT22;39812;52.430;16.936;2023-03-16T07:00:43;1.00;99.90
53904;DHT22;39812;52.430;16.936;2023-03-16T07:03:09;1.10;99.90
53904;DHT22;39812;52.430;16.936;2023-03-16T07:05:34;1.10;99.90
53904;DHT22;39812;52.430;16.936;2023-03-16T07:08:00;1.20;99.90
53904;DHT22;39812;52.430;16.936;2023-03-16T07:10:26;1.30;99.90
53904;DHT22;39812;52.430;16.936;2023-03-16T07:12:52;1.30;99.90
53904;DHT22;39812;52.430;16.936;2023-03-16T07:15:19;1.40;99.90
53904;DHT22;39812;52.430;16.936;2023-03-16T07:17:46;1.50;99.90
53904;DHT22;39812;52.430;16.936;2023-03-16T07:20:12;1.50;99.90
53904;DHT22;39812;52.430;16.936;2023-03-16T07:22:38;1.60;99.90
53904;DHT22;39812;52.430;16.936;2023-03-16T07:25:05;1.70;99.90
53904;DHT22;39812;52.430;16.936;2023-03-16T07:27:31;1.80;99.90
53904;DHT22;39812;52.430;16.936;2023-03-16T07:29:57;1.90;99.90
53904;DHT22;39812;52.430;16.936;2023-03-16T07:32:24;2.00;99.90
53904;DHT22;39812;52.430;16.936;2023-03-16T07:34:50;2.10;99.90
53904;DHT22;39812;52.430;16.936;2023-03-16T07:37:16;2.20;99.90
53904;DHT22;39812;52.430;16.936;2023-03-16T07:39:42;2.30;99.90
53904;DHT22;39812;52.430;16.936;2023-03-16T07:42:08;2.50;99.90
53904;DHT22;39812;52.430;16.936;2023-03-16T07:44:34;2.60;99.90
53904;DHT22;39812;52.430;16.936;2023-03-16T07:47:00;2.60;99.90
53904;DHT22;39812;52.430;16.936;2023-03-16T07:49:26;2.70;99.90
53904;DHT22;39812;52.430;16.936;2023-03-16T07:51:52;2.80;99.90
53904;DHT22;39812;52.430;16.936;2023-03-16T07:54:18;2.80;99.90
53904;DHT22;39812;52.430;16.936;2023-03-16T07:56:43;2.80;99.90
53904;DHT22;39812;52.430;16.936;2023-03-16T07:59:09;2.80;99.90
53904;DHT22;39812;52.430;16.936;2023-03-16T08:01:35;2.90;99.90
53904;DHT22;39812;52.430;16.936;2023-03-16T08:04:01;3.00;99.90
53904;DHT22;39812;52.430;16.936;2023-03-16T08:06:27;3.00;99.90
53904;DHT22;39812;52.430;16.936;2023-03-16T08:08:53;3.10;99.90
53904;DHT22;39812;52.430;16.936;2023-03-16T08:11:19;3.20;99.90
53904;DHT22;39812;52.430;16.936;2023-03-16T08:13:51;3.30;99.90
53904;DHT22;39812;52.430;16.936;2023-03-16T08:16:24;3.40;99.90
53904;DHT22;39812;52.430;16.936;2023-03-16T08:18:51;3.50;99.90
53904;DHT22;39812;52.430;16.936;2023-03-16T08:21:17;3.70;99.90
53904;DHT22;39812;52.430;16.936;2023-03-16T08:23:44;4.00;99.90
53904;DHT22;39812;52.430;16.936;2023-03-16T08:26:20;4.10;99.90
53904;DHT22;39812;52.430;16.936;2023-03-16T08:28:49;4.30;99.90
53904;DHT22;39812;52.430;16.936;2023-03-16T08:31:17;4.20;99.90
53904;DHT22;39812;52.430;16.936;2023-03-16T08:33:44;3.90;99.90
53904;DHT22;39812;52.430;16.936;2023-03-16T08:36:16;4.00;99.90
53904;DHT22;39812;52.430;16.936;2023-03-16T08:38:42;4.30;99.90
53904;DHT22;39812;52.430;16.936;2023-03-16T08:41:09;4.40;99.90
53904;DHT22;39812;52.430;16.936;2023-03-16T08:43:37;4.50;99.90
53904;DHT22;39812;52.430;16.936;2023-03-16T08:46:03;4.50;99.90
53904;DHT22;39812;52.430;16.936;2023-03-16T08:48:30;4.50;99.90
53904;DHT22;39812;52.430;16.936;2023-03-16T08:51:03;4.80;99.90
53904;DHT22;39812;52.430;16.936;2023-03-16T08:53:30;5.00;99.90
53904;DHT22;39812;52.430;16.936;2023-03-16T08:56:03;4.70;99.90
53904;DHT22;39812;52.430;16.936;2023-03-16T08:58:30;4.60;99.90
53904;DHT22;39812;52.430;16.936;2023-03-16T09:00:58;4.60;99.90
53904;DHT22;39812;52.430;16.936;2023-03-16T09:03:24;4.50;99.90
53904;DHT22;39812;52.430;16.936;2023-03-16T09:05:50;4.40;99.90
53904;DHT22;39812;52.430;16.936;2023-03-16T09:08:17;4.30;99.90
53904;DHT22;39812;52.430;16.936;2023-03-16T09:10:43;4.30;99.90
53904;DHT22;39812;52.430;16.936;2023-03-16T09:13:10;4.40;99.90
53904;DHT22;39812;52.430;16.936;2023-03-16T09:15:35;4.50;99.90
53904;DHT22;39812;52.430;16.936;2023-03-16T09:18:02;4.90;99.90
53904;DHT22;39812;52.430;16.936;2023-03-16T09:20:28;4.70;99.90
53904;DHT22;39812;52.430;16.936;2023-03-16T09:22:54;4.50;99.90
53904;DHT22;39812;52.430;16.936;2023-03-16T09:25:20;4.60;99.90
53904;DHT22;39812;52.430;16.936;2023-03-16T09:27:46;4.90;99.90
53904;DHT22;39812;52.430;16.936;2023-03-16T09:30:12;4.80;99.90
53904;DHT22;39812;52.430;16.936;2023-03-16T09:32:38;5.00;99.90
53904;DHT22;39812;52.430;16.936;2023-03-16T09:35:05;4.90;99.90
53904;DHT22;39812;52.430;16.936;2023-03-16T09:37:32;4.90;99.90
53904;DHT22;39812;52.430;16.936;2023-03-16T09:39:57;5.10;99.90
53904;DHT22;39812;52.430;16.936;2023-03-16T09:47:25;5.90;99.90
53904;DHT22;39812;52.430;16.936;2023-03-16T09:49:57;5.80;99.90
53904;DHT22;39812;52.430;16.936;2023-03-16T09:55:32;5.50;99.90
53904;DHT22;39812;52.430;16.936;2023-03-16T09:58:00;5.60;99.90
53904;DHT22;39812;52.430;16.936;2023-03-16T10:00:38;5.10;99.90
53904;DHT22;39812;52.430;16.936;2023-03-16T10:05:40;5.10;99.90
53904;DHT22;39812;52.430;16.936;2023-03-16T10:08:21;5.50;99.90
53904;DHT22;39812;52.430;16.936;2023-03-16T10:11:01;5.70;99.90
53904;DHT22;39812;52.430;16.936;2023-03-16T10:13:47;5.90;99.90
53904;DHT22;39812;52.430;16.936;2023-03-16T10:16:53;5.70;99.90
53904;DHT22;39812;52.430;16.936;2023-03-16T10:19:52;6.20;99.90
53904;DHT22;39812;52.430;16.936;2023-03-16T10:22:21;6.00;99.90
53904;DHT22;39812;52.430;16.936;2023-03-16T10:27:27;5.60;99.90
53904;DHT22;39812;52.430;16.936;2023-03-16T10:29:53;5.60;99.90
53904;DHT22;39812;52.430;16.936;2023-03-16T10:32:19;5.70;99.90
53904;DHT22;39812;52.430;16.936;2023-03-16T10:34:53;6.00;99.90
53904;DHT22;39812;52.430;16.936;2023-03-16T10:37:19;6.20;99.90
53904;DHT22;39812;52.430;16.936;2023-03-16T10:39:47;5.90;99.90
53904;DHT22;39812;52.430;16.936;2023-03-16T10:42:15;5.70;99.90
53904;DHT22;39812;52.430;16.936;2023-03-16T10:44:42;5.70;99.90
53904;DHT22;39812;52.430;16.936;2023-03-16T10:47:17;5.70;99.90
53904;DHT22;39812;52.430;16.936;2023-03-16T10:49:43;5.40;99.90
53904;DHT22;39812;52.430;16.936;2023-03-16T10:52:42;5.20;99.90
53904;DHT22;39812;52.430;16.936;2023-03-16T10:55:14;5.20;99.90
53904;DHT22;39812;52.430;16.936;2023-03-16T10:57:46;5.30;99.90
53904;DHT22;39812;52.430;16.936;2023-03-16T11:00:16;5.60;99.90
53904;DHT22;39812;52.430;16.936;2023-03-16T11:02:46;5.90;99.90
53904;DHT22;39812;52.430;16.936;2023-03-16T11:07:49;6.10;99.90
53904;DHT22;39812;52.430;16.936;2023-03-16T11:10:29;6.40;99.90
53904;DHT22;39812;52.430;16.936;2023-03-16T11:13:21;6.60;99.50
53904;DHT22;39812;52.430;16.936;2023-03-16T11:18:57;6.50;99.00
53904;DHT22;39812;52.430;16.936;2023-03-16T11:24:39;6.80;98.50
53904;DHT22;39812;52.430;16.936;2023-03-16T11:32:28;6.90;98.60
53904;DHT22;39812;52.430;16.936;2023-03-16T11:34:55;7.20;97.60
53904;DHT22;39812;52.430;16.936;2023-03-16T11:49:31;6.90;96.20
53904;DHT22;39812;52.430;16.936;2023-03-16T11:52:44;7.70;96.30
53904;DHT22;39812;52.430;16.936;2023-03-16T12:08:28;10.60;87.40
53904;DHT22;39812;52.430;16.936;2023-03-16T12:11:20;9.40;88.20
53904;DHT22;39812;52.430;16.936;2023-03-16T12:19:21;10.60;87.30
53904;DHT22;39812;52.430;16.936;2023-03-16T12:21:58;12.00;85.00
53904;DHT22;39812;52.430;16.936;2023-03-16T12:24:28;13.70;82.90
53904;DHT22;39812;52.430;16.936;2023-03-16T12:26:56;14.70;78.10
53904;DHT22;39812;52.430;16.936;2023-03-16T12:29:40;16.60;72.60
53904;DHT22;39812;52.430;16.936;2023-03-16T12:32:23;17.70;68.80
53904;DHT22;39812;52.430;16.936;2023-03-16T12:35:23;17.20;67.20
53904;DHT22;39812;52.430;16.936;2023-03-16T12:40:41;19.40;61.20
53904;DHT22;39812;52.430;16.936;2023-03-16T12:43:40;15.50;61.80
53904;DHT22;39812;52.430;16.936;2023-03-16T12:46:41;15.00;63.20
53904;DHT22;39812;52.430;16.936;2023-03-16T12:49:10;16.40;63.30
53904;DHT22;39812;52.430;16.936;2023-03-16T12:51:41;18.20;60.70
53904;DHT22;39812;52.430;16.936;2023-03-16T12:54:23;18.10;59.50
53904;DHT22;39812;52.430;16.936;2023-03-16T12:56:51;18.00;59.00
53904;DHT22;39812;52.430;16.936;2023-03-16T12:59:22;17.20;58.90
53904;DHT22;39812;52.430;16.936;2023-03-16T13:01:56;19.10;57.20
53904;DHT22;39812;52.430;16.936;2023-03-16T13:04:33;19.00;56.20
53904;DHT22;39812;52.430;16.936;2023-03-16T13:07:08;20.00;55.20
53904;DHT22;39812;52.430;16.936;2023-03-16T13:09:41;19.90;54.60
53904;DHT22;39812;52.430;16.936;2023-03-16T13:12:19;21.40;54.10
53904;DHT22;39812;52.430;16.936;2023-03-16T13:14:45;23.20;52.20
53904;DHT22;39812;52.430;16.936;2023-03-16T13:19:40;20.50;48.80
53904;DHT22;39812;52.430;16.936;2023-03-16T13:27:25;13.80;56.60
53904;DHT22;39812;52.430;16.936;2023-03-16T13:29:59;13.30;60.30
53904;DHT22;39812;52.430;16.936;2023-03-16T13:32:29;14.50;58.90
53904;DHT22;39812;52.430;16.936;2023-03-16T13:34:59;16.30;57.10
53904;DHT22;39812;52.430;16.936;2023-03-16T13:37:28;15.90;57.00
53904;DHT22;39812;52.430;16.936;2023-03-16T13:39:59;14.80;55.90
53904;DHT22;39812;52.430;16.936;2023-03-16T13:42:29;15.00;55.20
53904;DHT22;39812;52.430;16.936;2023-03-16T13:44:58;14.20;55.90
53904;DHT22;39812;52.430;16.936;2023-03-16T13:47:28;14.00;56.90
53904;DHT22;39812;52.430;16.936;2023-03-16T13:49:58;15.90;55.10
53904;DHT22;39812;52.430;16.936;2023-03-16T13:52:29;14.70;55.30
53904;DHT22;39812;52.430;16.936;2023-03-16T13:54:57;15.70;55.80
53904;DHT22;39812;52.430;16.936;2023-03-16T13:57:28;17.20;54.10
53904;DHT22;39812;52.430;16.936;2023-03-16T14:00:19;18.80;50.70
53904;DHT22;39812;52.430;16.936;2023-03-16T14:02:49;16.00;51.70
53904;DHT22;39812;52.430;16.936;2023-03-16T14:07:47;13.30;56.30
53904;DHT22;39812;52.430;16.936;2023-03-16T14:10:14;15.50;56.10
53904;DHT22;39812;52.430;16.936;2023-03-16T14:13:05;17.80;53.70
53904;DHT22;39812;52.430;16.936;2023-03-16T14:15:31;16.90;52.60
53904;DHT22;39812;52.430;16.936;2023-03-16T14:18:48;14.90;54.00
53904;DHT22;39812;52.430;16.936;2023-03-16T14:21:21;15.60;55.90
53904;DHT22;39812;52.430;16.936;2023-03-16T14:23:57;13.50;54.70
53904;DHT22;39812;52.430;16.936;2023-03-16T14:26:24;11.90;57.80
53904;DHT22;39812;52.430;16.936;2023-03-16T14:29:05;11.70;58.30
53904;DHT22;39812;52.430;16.936;2023-03-16T14:31:33;14.50;58.80
53904;DHT22;39812;52.430;16.936;2023-03-16T14:34:02;14.60;55.90
53904;DHT22;39812;52.430;16.936;2023-03-16T14:36:35;14.70;54.80
53904;DHT22;39812;52.430;16.936;2023-03-16T14:39:15;16.30;53.40
53904;DHT22;39812;52.430;16.936;2023-03-16T14:41:47;14.30;51.90
53904;DHT22;39812;52.430;16.936;2023-03-16T14:44:27;15.40;54.80
53904;DHT22;39812;52.430;16.936;2023-03-16T14:46:56;17.10;51.70
53904;DHT22;39812;52.430;16.936;2023-03-16T14:49:27;19.00;49.60
53904;DHT22;39812;52.430;16.936;2023-03-16T14:51:58;20.20;48.50
53904;DHT22;39812;52.430;16.936;2023-03-16T14:54:25;20.60;48.00
53904;DHT22;39812;52.430;16.936;2023-03-16T14:56:53;21.40;47.90
53904;DHT22;39812;52.430;16.936;2023-03-16T14:59:20;22.10;47.90
53904;DHT22;39812;52.430;16.936;2023-03-16T15:01:46;22.20;46.40
53904;DHT22;39812;52.430;16.936;2023-03-16T15:04:14;22.70;46.00
53904;DHT22;39812;52.430;16.936;2023-03-16T15:06:41;21.60;45.90
53904;DHT22;39812;52.430;16.936;2023-03-16T15:09:26;21.50;45.40
53904;DHT22;39812;52.430;16.936;2023-03-16T15:11:53;21.10;46.10
53904;DHT22;39812;52.430;16.936;2023-03-16T15:14:20;23.60;44.80
53904;DHT22;39812;52.430;16.936;2023-03-16T15:17:05;25.80;44.90
53904;DHT22;39812;52.430;16.936;2023-03-16T15:19:31;27.50;43.40
53904;DHT22;39812;52.430;16.936;2023-03-16T15:21:59;27.30;41.30
53904;DHT22;39812;52.430;16.936;2023-03-16T15:24:25;28.60;40.90
53904;DHT22;39812;52.430;16.936;2023-03-16T15:26:53;27.60;39.70
53904;DHT22;39812;52.430;16.936;2023-03-16T15:29:19;27.60;39.80
53904;DHT22;39812;52.430;16.936;2023-03-16T15:31:44;27.80;39.30
53904;DHT22;39812;52.430;16.936;2023-03-16T15:34:11;27.60;39.30
53904;DHT22;39812;52.430;16.936;2023-03-16T15:36:36;27.10;39.20
53904;DHT22;39812;52.430;16.936;2023-03-16T15:39:03;27.50;38.90
53904;DHT22;39812;52.430;16.936;2023-03-16T15:41:29;27.20;38.70
53904;DHT22;39812;52.430;16.936;2023-03-16T15:43:56;26.50;39.00
53904;DHT22;39812;52.430;16.936;2023-03-16T15:46:26;25.80;38.90
53904;DHT22;39812;52.430;16.936;2023-03-16T15:48:52;26.00;39.10
53904;DHT22;39812;52.430;16.936;2023-03-16T15:51:24;24.40;39.50
53904;DHT22;39812;52.430;16.936;2023-03-16T15:54:05;23.60;40.40
53904;DHT22;39812;52.430;16.936;2023-03-16T15:56:37;22.40;39.80
53904;DHT22;39812;52.430;16.936;2023-03-16T15:59:05;22.80;40.50
53904;DHT22;39812;52.430;16.936;2023-03-16T16:01:36;23.10;39.80
53904;DHT22;39812;52.430;16.936;2023-03-16T16:04:08;22.70;41.10
53904;DHT22;39812;52.430;16.936;2023-03-16T16:06:36;22.70;40.80
53904;DHT22;39812;52.430;16.936;2023-03-16T16:09:02;22.00;41.50
53904;DHT22;39812;52.430;16.936;2023-03-16T16:11:28;22.30;41.40
53904;DHT22;39812;52.430;16.936;2023-03-16T16:13:54;20.60;41.50
53904;DHT22;39812;52.430;16.936;2023-03-16T16:16:21;19.60;43.30
53904;DHT22;39812;52.430;16.936;2023-03-16T16:18:47;18.70;44.40
53904;DHT22;39812;52.430;16.936;2023-03-16T16:21:24;17.80;44.60
53904;DHT22;39812;52.430;16.936;2023-03-16T16:23:52;17.30;46.10
53904;DHT22;39812;52.430;16.936;2023-03-16T16:26:26;17.10;46.20
53904;DHT22;39812;52.430;16.936;2023-03-16T16:28:53;16.40;46.90
53904;DHT22;39812;52.430;16.936;2023-03-16T16:31:21;16.10;47.50
53904;DHT22;39812;52.430;16.936;2023-03-16T16:33:47;16.00;47.90
53904;DHT22;39812;52.430;16.936;2023-03-16T16:36:15;15.60;48.00
53904;DHT22;39812;52.430;16.936;2023-03-16T16:38:46;15.30;48.60
53904;DHT22;39812;52.430;16.936;2023-03-16T16:41:29;14.60;49.40
53904;DHT22;39812;52.430;16.936;2023-03-16T16:43:55;14.00;50.60
53904;DHT22;39812;52.430;16.936;2023-03-16T16:46:24;13.30;51.60
53904;DHT22;39812;52.430;16.936;2023-03-16T16:49:14;12.30;53.20
53904;DHT22;39812;52.430;16.936;2023-03-16T16:51:38;11.20;54.90
53904;DHT22;39812;52.430;16.936;2023-03-16T16:54:13;10.10;57.40
53904;DHT22;39812;52.430;16.936;2023-03-16T16:56:40;9.20;59.20